createdAt,value
2016-12-29T00:00:21.980Z,-58
2016-12-29T00:01:22.101Z,-58
2016-12-29T00:02:21.968Z,-57
2016-12-29T00:03:22.399Z,-60
2016-12-29T00:04:22.224Z,-59
2016-12-29T00:05:22.220Z,-60
2016-12-29T00:06:21.880Z,-60
2016-12-29T00:07:21.882Z,-60
2016-12-29T00:08:22.016Z,-59
2016-12-29T00:09:21.866Z,-59
2016-12-29T00:10:21.883Z,-59
2016-12-29T00:11:21.861Z,-62
2016-12-29T00:12:21.913Z,-59
2016-12-29T00:13:21.832Z,-59
2016-12-29T00:14:21.839Z,-59
2016-12-29T00:15:21.913Z,-59
2016-12-29T00:16:21.837Z,-62
2016-12-29T00:17:21.944Z,-62
2016-12-29T00:18:21.909Z,-60
2016-12-29T00:19:21.858Z,-60
2016-12-29T00:20:21.836Z,-59
2016-12-29T00:21:21.821Z,-58
2016-12-29T00:22:21.829Z,-58
2016-12-29T00:23:21.925Z,-58
2016-12-29T00:24:21.829Z,-58
2016-12-29T00:25:21.849Z,-59
2016-12-29T00:26:21.855Z,-59
2016-12-29T00:27:21.891Z,-59
2016-12-29T00:28:21.941Z,-58
2016-12-29T00:29:21.891Z,-58
2016-12-29T00:30:21.905Z,-59
2016-12-29T00:31:21.926Z,-59
2016-12-29T00:32:21.959Z,-61
2016-12-29T00:33:23.369Z,-61
2016-12-29T00:34:21.917Z,-62
2016-12-29T00:35:21.887Z,-61
2016-12-29T00:36:21.955Z,-60
2016-12-29T00:37:21.932Z,-60
2016-12-29T00:38:22.845Z,-62
2016-12-29T00:39:21.974Z,-61
2016-12-29T00:40:21.837Z,-61
2016-12-29T00:41:21.860Z,-60
2016-12-29T00:42:21.853Z,-60
2016-12-29T00:43:21.877Z,-62
2016-12-29T00:44:21.851Z,-62
2016-12-29T00:45:21.828Z,-59
2016-12-29T00:46:21.857Z,-60
2016-12-29T00:47:21.885Z,-59
2016-12-29T00:48:21.878Z,-59
2016-12-29T00:49:22.368Z,-61
2016-12-29T00:50:22.462Z,-60
2016-12-29T00:51:22.020Z,-57
2016-12-29T00:52:21.934Z,-58
2016-12-29T00:53:22.062Z,-57
2016-12-29T00:54:21.936Z,-58
2016-12-29T00:55:21.882Z,-59
2016-12-29T00:56:22.499Z,-59
2016-12-29T00:57:21.984Z,-59
2016-12-29T00:58:22.591Z,-59
2016-12-29T00:59:21.881Z,-62
2016-12-29T01:00:22.643Z,-59
2016-12-29T01:01:21.895Z,-59
2016-12-29T01:02:21.965Z,-53
2016-12-29T01:03:22.340Z,-56
2016-12-29T01:04:21.909Z,-58
2016-12-29T01:05:21.887Z,-56
2016-12-29T01:06:21.996Z,-58
2016-12-29T01:07:21.887Z,-58
2016-12-29T01:08:22.113Z,-58
2016-12-29T01:09:21.869Z,-58
2016-12-29T01:10:21.846Z,-58
2016-12-29T01:11:21.884Z,-57
2016-12-29T01:12:21.889Z,-58
2016-12-29T01:13:21.882Z,-58
2016-12-29T01:14:21.849Z,-58
2016-12-29T01:15:21.850Z,-58
2016-12-29T01:16:21.858Z,-58
2016-12-29T01:17:21.893Z,-56
2016-12-29T01:18:21.900Z,-56
2016-12-29T01:19:21.893Z,-57
2016-12-29T01:20:22.825Z,-58
2016-12-29T01:21:21.923Z,-58
2016-12-29T01:22:21.911Z,-58
2016-12-29T01:23:22.344Z,-58
2016-12-29T01:24:22.272Z,-59
2016-12-29T01:25:21.967Z,-60
2016-12-29T01:26:21.886Z,-59
2016-12-29T01:27:21.937Z,-59
2016-12-29T01:28:22.193Z,-57
2016-12-29T01:29:21.925Z,-57
2016-12-29T01:30:22.088Z,-57
2016-12-29T01:31:22.320Z,-60
2016-12-29T01:32:21.980Z,-58
2016-12-29T01:33:22.201Z,-58
2016-12-29T01:34:21.988Z,-59
2016-12-29T01:35:21.981Z,-55
2016-12-29T01:36:22.022Z,-57
2016-12-29T01:37:22.000Z,-57
2016-12-29T01:38:22.008Z,-58
2016-12-29T01:39:22.037Z,-56
2016-12-29T01:40:21.932Z,-58
2016-12-29T01:41:22.040Z,-58
2016-12-29T01:42:22.560Z,-59
2016-12-29T01:43:21.989Z,-59
2016-12-29T01:44:21.974Z,-57
2016-12-29T01:45:22.084Z,-57
2016-12-29T01:46:21.988Z,-58
2016-12-29T01:47:22.024Z,-58
2016-12-29T01:48:21.925Z,-58
2016-12-29T01:49:21.914Z,-57
2016-12-29T01:50:21.901Z,-58
2016-12-29T01:51:21.871Z,-58
2016-12-29T01:52:21.905Z,-59
2016-12-29T01:53:21.929Z,-58
2016-12-29T01:54:21.917Z,-58
2016-12-29T01:55:21.913Z,-58
2016-12-29T01:56:21.917Z,-58
2016-12-29T01:57:21.911Z,-57
2016-12-29T01:58:21.931Z,-58
2016-12-29T01:59:21.975Z,-58
2016-12-29T02:00:21.939Z,-57
2016-12-29T02:01:21.917Z,-57
2016-12-29T02:02:21.951Z,-57
2016-12-29T02:03:21.913Z,-58
2016-12-29T02:04:21.905Z,-58
2016-12-29T02:05:21.915Z,-58
2016-12-29T02:06:21.920Z,-58
2016-12-29T02:07:21.902Z,-58
2016-12-29T02:08:21.949Z,-58
2016-12-29T02:09:21.926Z,-58
2016-12-29T02:10:21.964Z,-58
2016-12-29T02:11:21.984Z,-59
2016-12-29T02:12:21.961Z,-57
2016-12-29T02:13:21.968Z,-57
2016-12-29T02:14:21.901Z,-57
2016-12-29T02:15:21.920Z,-58
2016-12-29T02:16:21.874Z,-57
2016-12-29T02:17:21.950Z,-58
2016-12-29T02:18:21.928Z,-58
2016-12-29T02:19:21.905Z,-58
2016-12-29T02:20:21.916Z,-57
2016-12-29T02:21:21.920Z,-57
2016-12-29T02:22:21.971Z,-57
2016-12-29T02:23:21.951Z,-58
2016-12-29T02:24:21.976Z,-57
2016-12-29T02:25:21.932Z,-58
2016-12-29T02:26:21.942Z,-58
2016-12-29T02:27:21.937Z,-58
2016-12-29T02:28:21.920Z,-57
2016-12-29T02:29:21.907Z,-57
2016-12-29T02:30:21.923Z,-55
2016-12-29T02:31:21.915Z,-57
2016-12-29T02:32:21.981Z,-58
2016-12-29T02:33:21.988Z,-55
2016-12-29T02:34:21.974Z,-58
2016-12-29T02:35:21.947Z,-58
2016-12-29T02:36:21.940Z,-57
2016-12-29T02:37:21.962Z,-58
2016-12-29T02:38:22.159Z,-58
2016-12-29T02:39:21.930Z,-58
2016-12-29T02:40:21.973Z,-57
2016-12-29T02:41:21.943Z,-58
2016-12-29T02:42:21.955Z,-58
2016-12-29T02:43:21.975Z,-58
2016-12-29T02:44:21.940Z,-57
2016-12-29T02:45:21.952Z,-59
2016-12-29T02:46:21.930Z,-58
2016-12-29T02:47:21.981Z,-58
2016-12-29T02:48:21.972Z,-58
2016-12-29T02:49:21.958Z,-58
2016-12-29T02:50:21.949Z,-57
2016-12-29T02:51:21.945Z,-59
2016-12-29T02:52:21.951Z,-58
2016-12-29T02:53:22.054Z,-58
2016-12-29T02:54:22.019Z,-57
2016-12-29T02:55:21.937Z,-58
2016-12-29T02:56:21.990Z,-57
2016-12-29T02:57:21.923Z,-60
2016-12-29T02:58:21.974Z,-60
2016-12-29T02:59:21.927Z,-60
2016-12-29T03:00:21.955Z,-60
2016-12-29T03:01:21.953Z,-57
2016-12-29T03:02:22.002Z,-57
2016-12-29T03:03:21.999Z,-57
2016-12-29T03:04:21.984Z,-55
2016-12-29T03:05:21.961Z,-58
2016-12-29T03:06:21.959Z,-57
2016-12-29T03:07:21.922Z,-58
2016-12-29T03:08:21.991Z,-58
2016-12-29T03:09:21.963Z,-58
2016-12-29T03:10:21.936Z,-61
2016-12-29T03:11:21.976Z,-60
2016-12-29T03:12:21.969Z,-59
2016-12-29T03:13:21.991Z,-59
2016-12-29T03:14:21.997Z,-61
2016-12-29T03:15:22.039Z,-61
2016-12-29T03:16:22.043Z,-61
2016-12-29T03:17:22.044Z,-61
2016-12-29T03:18:22.008Z,-59
2016-12-29T03:19:22.000Z,-59
2016-12-29T03:20:21.949Z,-59
2016-12-29T03:21:21.998Z,-59
2016-12-29T03:22:21.961Z,-59
2016-12-29T03:23:21.970Z,-59
2016-12-29T03:24:21.962Z,-59
2016-12-29T03:25:21.936Z,-59
2016-12-29T03:26:21.929Z,-59
2016-12-29T03:27:21.950Z,-59
2016-12-29T03:28:22.041Z,-59
2016-12-29T03:29:21.934Z,-58
2016-12-29T03:30:21.970Z,-59
2016-12-29T03:31:21.992Z,-58
2016-12-29T03:32:22.013Z,-59
2016-12-29T03:33:22.008Z,-59
2016-12-29T03:34:21.970Z,-59
2016-12-29T03:35:21.992Z,-59
2016-12-29T03:36:21.999Z,-62
2016-12-29T03:37:22.010Z,-61
2016-12-29T03:38:22.009Z,-59
2016-12-29T03:39:21.943Z,-60
2016-12-29T03:40:21.959Z,-60
2016-12-29T03:41:21.956Z,-60
2016-12-29T03:42:21.956Z,-59
2016-12-29T03:43:21.977Z,-59
2016-12-29T03:44:22.020Z,-60
2016-12-29T03:45:21.986Z,-60
2016-12-29T03:46:22.007Z,-58
2016-12-29T03:47:22.030Z,-58
2016-12-29T03:48:21.995Z,-59
2016-12-29T03:49:22.025Z,-57
2016-12-29T03:50:22.014Z,-59
2016-12-29T03:51:22.021Z,-59
2016-12-29T03:52:21.989Z,-59
2016-12-29T03:53:22.024Z,-60
2016-12-29T03:54:22.008Z,-60
2016-12-29T03:55:22.053Z,-60
2016-12-29T03:56:22.021Z,-60
2016-12-29T03:57:22.069Z,-59
2016-12-29T03:58:22.043Z,-59
2016-12-29T03:59:22.051Z,-61
2016-12-29T04:00:22.025Z,-59
2016-12-29T04:01:22.100Z,-59
2016-12-29T04:02:22.034Z,-59
2016-12-29T04:03:21.982Z,-59
2016-12-29T04:04:21.982Z,-60
2016-12-29T04:05:21.989Z,-59
2016-12-29T04:06:22.016Z,-60
2016-12-29T04:07:21.957Z,-60
2016-12-29T04:08:21.961Z,-60
2016-12-29T04:09:22.049Z,-59
2016-12-29T04:10:21.988Z,-59
2016-12-29T04:11:21.998Z,-58
2016-12-29T04:12:21.999Z,-58
2016-12-29T04:13:22.026Z,-59
2016-12-29T04:14:22.004Z,-59
2016-12-29T04:15:22.036Z,-61
2016-12-29T04:16:22.034Z,-59
2016-12-29T04:17:22.055Z,-60
2016-12-29T04:18:22.011Z,-59
2016-12-29T04:19:21.983Z,-59
2016-12-29T04:20:22.034Z,-58
2016-12-29T04:21:22.014Z,-58
2016-12-29T04:22:22.004Z,-58
2016-12-29T04:23:22.013Z,-58
2016-12-29T04:24:21.990Z,-57
2016-12-29T04:25:21.982Z,-59
2016-12-29T04:26:22.011Z,-58
2016-12-29T04:27:22.025Z,-59
2016-12-29T04:28:22.002Z,-59
2016-12-29T04:29:22.054Z,-58
2016-12-29T04:30:22.005Z,-57
2016-12-29T04:31:22.009Z,-57
2016-12-29T04:32:22.084Z,-59
2016-12-29T04:33:22.038Z,-58
2016-12-29T04:34:21.987Z,-59
2016-12-29T04:35:22.035Z,-60
2016-12-29T04:36:22.014Z,-58
2016-12-29T04:37:21.990Z,-59
2016-12-29T04:38:21.998Z,-59
2016-12-29T04:39:22.018Z,-59
2016-12-29T04:40:22.012Z,-59
2016-12-29T04:41:22.034Z,-59
2016-12-29T04:42:22.024Z,-59
2016-12-29T04:43:22.045Z,-60
2016-12-29T04:44:22.017Z,-59
2016-12-29T04:45:22.019Z,-58
2016-12-29T04:46:22.041Z,-59
2016-12-29T04:47:22.047Z,-59
2016-12-29T04:48:22.040Z,-59
2016-12-29T04:49:22.037Z,-58
2016-12-29T04:50:22.023Z,-59
2016-12-29T04:51:22.012Z,-60
2016-12-29T04:52:22.040Z,-58
2016-12-29T04:53:22.079Z,-59
2016-12-29T04:54:22.030Z,-59
2016-12-29T04:55:22.045Z,-58
2016-12-29T04:56:22.007Z,-59
2016-12-29T04:57:22.042Z,-59
2016-12-29T04:58:22.050Z,-61
2016-12-29T04:59:22.014Z,-60
2016-12-29T05:00:22.065Z,-59
2016-12-29T05:01:22.068Z,-59
2016-12-29T05:02:22.078Z,-59
2016-12-29T05:03:22.026Z,-60
2016-12-29T05:04:22.006Z,-60
2016-12-29T05:05:22.039Z,-59
2016-12-29T05:06:22.018Z,-61
2016-12-29T05:07:21.996Z,-59
2016-12-29T05:08:22.030Z,-58
2016-12-29T05:09:22.010Z,-59
2016-12-29T05:10:22.014Z,-59
2016-12-29T05:11:21.993Z,-58
2016-12-29T05:12:22.000Z,-59
2016-12-29T05:13:22.050Z,-59
2016-12-29T05:14:22.039Z,-59
2016-12-29T05:15:22.072Z,-59
2016-12-29T05:16:22.022Z,-59
2016-12-29T05:17:22.109Z,-59
2016-12-29T05:18:22.035Z,-59
2016-12-29T05:19:22.071Z,-59
2016-12-29T05:20:22.064Z,-59
2016-12-29T05:21:22.071Z,-59
2016-12-29T05:22:22.054Z,-59
2016-12-29T05:23:22.053Z,-59
2016-12-29T05:24:22.045Z,-59
2016-12-29T05:25:22.043Z,-59
2016-12-29T05:26:22.094Z,-59
2016-12-29T05:27:22.028Z,-58
2016-12-29T05:28:22.053Z,-59
2016-12-29T05:29:22.056Z,-59
2016-12-29T05:30:22.078Z,-58
2016-12-29T05:31:22.071Z,-58
2016-12-29T05:32:22.107Z,-59
2016-12-29T05:33:22.011Z,-59
2016-12-29T05:34:22.018Z,-58
2016-12-29T05:35:22.058Z,-59
2016-12-29T05:36:22.038Z,-59
2016-12-29T05:37:22.087Z,-59
2016-12-29T05:38:22.063Z,-59
2016-12-29T05:39:22.067Z,-59
2016-12-29T05:40:22.065Z,-59
2016-12-29T05:41:22.081Z,-59
2016-12-29T05:42:22.076Z,-58
2016-12-29T05:43:22.830Z,-59
2016-12-29T05:44:22.063Z,-58
2016-12-29T05:45:22.042Z,-58
2016-12-29T05:46:22.026Z,-59
2016-12-29T05:47:22.106Z,-59
2016-12-29T05:48:22.084Z,-57
2016-12-29T05:49:22.096Z,-58
2016-12-29T05:50:22.043Z,-57
2016-12-29T05:51:22.055Z,-58
2016-12-29T05:52:22.047Z,-58
2016-12-29T05:53:22.067Z,-58
2016-12-29T05:54:22.049Z,-57
2016-12-29T05:55:22.045Z,-57
2016-12-29T05:56:22.034Z,-57
2016-12-29T05:57:22.040Z,-58
2016-12-29T05:58:22.078Z,-58
2016-12-29T05:59:22.044Z,-59
2016-12-29T06:00:22.079Z,-57
2016-12-29T06:01:22.072Z,-58
2016-12-29T06:02:22.074Z,-57
2016-12-29T06:03:22.082Z,-57
2016-12-29T06:04:22.031Z,-58
2016-12-29T06:05:22.082Z,-58
2016-12-29T06:06:22.043Z,-57
2016-12-29T06:07:22.052Z,-57
2016-12-29T06:08:22.076Z,-58
2016-12-29T06:09:22.125Z,-58
2016-12-29T06:10:22.071Z,-58
2016-12-29T06:11:22.114Z,-57
2016-12-29T06:12:22.130Z,-57
2016-12-29T06:13:22.225Z,-56
2016-12-29T06:14:22.071Z,-58
2016-12-29T06:15:22.063Z,-58
2016-12-29T06:16:22.051Z,-58
2016-12-29T06:17:22.108Z,-58
2016-12-29T06:18:22.130Z,-58
2016-12-29T06:19:22.064Z,-59
2016-12-29T06:20:22.039Z,-59
2016-12-29T06:21:22.033Z,-59
2016-12-29T06:22:22.052Z,-59
2016-12-29T06:23:22.103Z,-55
2016-12-29T06:24:22.073Z,-57
2016-12-29T06:25:22.064Z,-56
2016-12-29T06:26:22.053Z,-55
2016-12-29T06:27:22.050Z,-57
2016-12-29T06:28:22.067Z,-57
2016-12-29T06:29:22.061Z,-57
2016-12-29T06:30:22.082Z,-57
2016-12-29T06:31:22.086Z,-57
2016-12-29T06:32:22.128Z,-58
2016-12-29T06:33:22.121Z,-54
2016-12-29T06:34:22.053Z,-58
2016-12-29T06:35:22.091Z,-58
2016-12-29T06:36:22.093Z,-58
2016-12-29T06:37:22.136Z,-57
2016-12-29T06:38:22.093Z,-57
2016-12-29T06:39:22.076Z,-57
2016-12-29T06:40:22.099Z,-57
2016-12-29T06:41:22.103Z,-56
2016-12-29T06:42:22.121Z,-58
2016-12-29T06:43:22.121Z,-58
2016-12-29T06:44:22.116Z,-58
2016-12-29T06:45:22.131Z,-58
2016-12-29T06:46:22.174Z,-57
2016-12-29T06:47:22.846Z,-58
2016-12-29T06:48:22.105Z,-57
2016-12-29T06:49:22.114Z,-58
2016-12-29T06:50:22.090Z,-58
2016-12-29T06:51:22.141Z,-58
2016-12-29T06:52:22.104Z,-58
2016-12-29T06:53:22.168Z,-58
2016-12-29T06:54:22.093Z,-58
2016-12-29T06:55:22.149Z,-58
2016-12-29T06:56:22.124Z,-58
2016-12-29T06:57:22.116Z,-58
2016-12-29T06:58:22.137Z,-58
2016-12-29T06:59:22.119Z,-58
2016-12-29T07:00:22.072Z,-58
2016-12-29T07:01:22.083Z,-59
2016-12-29T07:02:22.148Z,-59
2016-12-29T07:03:22.098Z,-59
2016-12-29T07:04:22.075Z,-59
2016-12-29T07:05:22.121Z,-59
2016-12-29T07:06:22.087Z,-59
2016-12-29T07:07:22.090Z,-59
2016-12-29T07:08:22.094Z,-59
2016-12-29T07:09:22.083Z,-59
2016-12-29T07:10:22.065Z,-58
2016-12-29T07:11:22.126Z,-61
2016-12-29T07:12:22.111Z,-61
2016-12-29T07:13:22.146Z,-59
2016-12-29T07:14:22.102Z,-58
2016-12-29T07:15:22.099Z,-58
2016-12-29T07:16:22.057Z,-57
2016-12-29T07:17:22.165Z,-59
2016-12-29T07:18:22.137Z,-58
2016-12-29T07:19:22.092Z,-60
2016-12-29T07:20:22.097Z,-59
2016-12-29T07:21:22.081Z,-59
2016-12-29T07:22:22.124Z,-59
2016-12-29T07:23:22.132Z,-59
2016-12-29T07:24:22.092Z,-59
2016-12-29T07:25:22.103Z,-59
2016-12-29T07:26:22.150Z,-59
2016-12-29T07:27:22.190Z,-59
2016-12-29T07:28:22.123Z,-59
2016-12-29T07:29:22.092Z,-61
2016-12-29T07:30:22.117Z,-59
2016-12-29T07:31:22.102Z,-59
2016-12-29T07:32:22.229Z,-58
2016-12-29T07:33:22.135Z,-58
2016-12-29T07:34:22.207Z,-58
2016-12-29T07:35:22.126Z,-58
2016-12-29T07:36:22.163Z,-58
2016-12-29T07:37:22.283Z,-58
2016-12-29T07:38:22.208Z,-58
2016-12-29T07:39:22.155Z,-56
2016-12-29T07:40:22.150Z,-59
2016-12-29T07:41:22.122Z,-59
2016-12-29T07:42:22.196Z,-58
2016-12-29T07:43:22.228Z,-60
2016-12-29T07:44:22.189Z,-56
2016-12-29T07:45:22.181Z,-58
2016-12-29T07:46:22.142Z,-60
2016-12-29T07:47:22.250Z,-59
2016-12-29T07:48:22.131Z,-58
2016-12-29T07:49:22.167Z,-57
2016-12-29T07:50:22.173Z,-59
2016-12-29T07:51:22.226Z,-57
2016-12-29T07:52:22.300Z,-57
2016-12-29T07:53:22.245Z,-55
2016-12-29T07:54:22.145Z,-59
2016-12-29T07:55:22.109Z,-59
2016-12-29T07:56:22.125Z,-59
2016-12-29T07:57:22.179Z,-59
2016-12-29T07:58:22.130Z,-59
2016-12-29T07:59:22.122Z,-58
2016-12-29T08:00:22.113Z,-58
2016-12-29T08:01:22.103Z,-59
2016-12-29T08:02:22.199Z,-58
2016-12-29T08:03:22.104Z,-60
2016-12-29T08:04:22.110Z,-59
2016-12-29T08:05:22.105Z,-59
2016-12-29T08:06:22.122Z,-59
2016-12-29T08:07:22.148Z,-59
2016-12-29T08:08:22.139Z,-59
2016-12-29T08:09:22.116Z,-59
2016-12-29T08:10:22.165Z,-58
2016-12-29T08:11:22.130Z,-58
2016-12-29T08:12:22.148Z,-59
2016-12-29T08:13:22.216Z,-59
2016-12-29T08:14:22.175Z,-59
2016-12-29T08:15:22.126Z,-59
2016-12-29T08:16:22.207Z,-60
2016-12-29T08:17:22.259Z,-61
2016-12-29T08:18:22.290Z,-59
2016-12-29T08:19:22.263Z,-59
2016-12-29T08:20:22.252Z,-59
2016-12-29T08:21:22.209Z,-59
2016-12-29T08:22:22.205Z,-59
2016-12-29T08:23:22.212Z,-59
2016-12-29T08:24:22.195Z,-59
2016-12-29T08:25:22.185Z,-59
2016-12-29T08:26:22.156Z,-59
2016-12-29T08:27:22.153Z,-59
2016-12-29T08:28:22.159Z,-59
2016-12-29T08:29:22.208Z,-59
2016-12-29T08:30:22.138Z,-59
2016-12-29T08:31:22.118Z,-59
2016-12-29T08:32:22.181Z,-59
2016-12-29T08:33:22.131Z,-59
2016-12-29T08:34:22.155Z,-58
2016-12-29T08:35:22.139Z,-55
2016-12-29T08:36:22.125Z,-57
2016-12-29T08:37:22.158Z,-57
2016-12-29T08:38:22.151Z,-59
2016-12-29T08:39:22.159Z,-58
2016-12-29T08:40:22.149Z,-57
2016-12-29T08:41:22.156Z,-58
2016-12-29T08:42:22.133Z,-58
2016-12-29T08:43:22.200Z,-58
2016-12-29T08:44:22.119Z,-59
2016-12-29T08:45:22.155Z,-58
2016-12-29T08:46:22.165Z,-57
2016-12-29T08:47:22.200Z,-58
2016-12-29T08:48:22.795Z,-58
2016-12-29T08:49:22.108Z,-58
2016-12-29T08:50:22.163Z,-58
2016-12-29T08:51:22.113Z,-58
2016-12-29T08:52:22.131Z,-58
2016-12-29T08:53:22.154Z,-58
2016-12-29T08:54:22.132Z,-58
2016-12-29T08:55:22.160Z,-58
2016-12-29T08:56:22.131Z,-55
2016-12-29T08:57:22.174Z,-58
2016-12-29T08:58:22.172Z,-59
2016-12-29T08:59:22.151Z,-58
2016-12-29T09:00:22.122Z,-59
2016-12-29T09:01:22.146Z,-58
2016-12-29T09:02:22.169Z,-58
2016-12-29T09:03:22.423Z,-58
2016-12-29T09:04:22.193Z,-59
2016-12-29T09:05:22.129Z,-59
2016-12-29T09:06:22.155Z,-58
2016-12-29T09:07:22.250Z,-58
2016-12-29T09:08:22.190Z,-58
2016-12-29T09:09:22.159Z,-59
2016-12-29T09:10:22.174Z,-59
2016-12-29T09:11:22.136Z,-59
2016-12-29T09:12:22.143Z,-58
2016-12-29T09:13:22.178Z,-58
2016-12-29T09:14:22.192Z,-60
2016-12-29T09:15:22.222Z,-59
2016-12-29T09:16:22.184Z,-59
2016-12-29T09:17:22.231Z,-59
2016-12-29T09:18:22.170Z,-58
2016-12-29T09:19:22.149Z,-59
2016-12-29T09:20:22.156Z,-59
2016-12-29T09:21:22.206Z,-58
2016-12-29T09:22:22.212Z,-58
2016-12-29T09:23:22.185Z,-60
2016-12-29T09:24:22.211Z,-60
2016-12-29T09:25:22.230Z,-59
2016-12-29T09:26:22.190Z,-59
2016-12-29T09:27:22.191Z,-59
2016-12-29T09:28:22.237Z,-59
2016-12-29T09:29:22.207Z,-60
2016-12-29T09:30:22.150Z,-59
2016-12-29T09:31:22.173Z,-59
2016-12-29T09:32:22.322Z,-60
2016-12-29T09:33:22.199Z,-60
2016-12-29T09:34:22.161Z,-59
2016-12-29T09:35:22.213Z,-60
2016-12-29T09:36:22.161Z,-60
2016-12-29T09:37:22.167Z,-59
2016-12-29T09:38:22.176Z,-59
2016-12-29T09:39:22.139Z,-59
2016-12-29T09:40:22.145Z,-58
2016-12-29T09:41:22.195Z,-59
2016-12-29T09:42:22.189Z,-60
2016-12-29T09:43:22.210Z,-59
2016-12-29T09:44:22.452Z,-59
2016-12-29T09:45:22.229Z,-59
2016-12-29T09:46:22.191Z,-59
2016-12-29T09:47:22.228Z,-59
2016-12-29T09:48:22.221Z,-59
2016-12-29T09:49:22.175Z,-61
2016-12-29T09:50:22.223Z,-61
2016-12-29T09:51:22.226Z,-57
2016-12-29T09:52:22.189Z,-57
2016-12-29T09:53:22.250Z,-58
2016-12-29T09:54:22.199Z,-58
2016-12-29T09:55:22.364Z,-58
2016-12-29T09:56:22.226Z,-59
2016-12-29T09:57:22.283Z,-60
2016-12-29T09:58:22.198Z,-62
2016-12-29T09:59:22.203Z,-59
2016-12-29T10:00:22.180Z,-60
2016-12-29T10:01:22.219Z,-58
2016-12-29T10:02:22.228Z,-59
2016-12-29T10:03:22.229Z,-58
2016-12-29T10:04:22.179Z,-58
2016-12-29T10:05:22.238Z,-59
2016-12-29T10:06:22.173Z,-58
2016-12-29T10:07:22.213Z,-58
2016-12-29T10:08:22.249Z,-58
2016-12-29T10:09:22.200Z,-59
2016-12-29T10:10:22.227Z,-57
2016-12-29T10:11:22.201Z,-57
2016-12-29T10:12:22.252Z,-58
2016-12-29T10:13:22.229Z,-59
2016-12-29T10:14:22.237Z,-58
2016-12-29T10:15:22.187Z,-59
2016-12-29T10:16:22.194Z,-59
2016-12-29T10:17:22.241Z,-60
2016-12-29T10:18:22.206Z,-60
2016-12-29T10:19:22.197Z,-60
2016-12-29T10:20:22.174Z,-56
2016-12-29T10:21:22.167Z,-58
2016-12-29T10:22:22.281Z,-57
2016-12-29T10:23:22.182Z,-58
2016-12-29T10:24:22.212Z,-59
2016-12-29T10:25:22.197Z,-58
2016-12-29T10:26:22.244Z,-57
2016-12-29T10:27:22.205Z,-58
2016-12-29T10:28:22.249Z,-58
2016-12-29T10:29:22.187Z,-58
2016-12-29T10:30:22.223Z,-58
2016-12-29T10:31:22.201Z,-59
2016-12-29T10:32:22.212Z,-58
2016-12-29T10:33:22.230Z,-58
2016-12-29T10:34:22.254Z,-58
2016-12-29T10:35:22.271Z,-60
2016-12-29T10:36:22.225Z,-58
2016-12-29T10:37:22.219Z,-61
2016-12-29T10:38:22.569Z,-60
2016-12-29T10:39:22.235Z,-61
2016-12-29T10:40:22.339Z,-59
2016-12-29T10:41:22.271Z,-59
2016-12-29T10:42:22.242Z,-58
2016-12-29T10:43:22.292Z,-58
2016-12-29T10:44:22.277Z,-60
2016-12-29T10:45:22.218Z,-57
2016-12-29T10:46:22.317Z,-58
2016-12-29T10:47:22.911Z,-61
2016-12-29T10:48:22.306Z,-57
2016-12-29T10:49:22.490Z,-61
2016-12-29T10:50:22.315Z,-60
2016-12-29T10:51:22.312Z,-58
2016-12-29T10:52:22.377Z,-62
2016-12-29T10:53:22.354Z,-62
2016-12-29T10:54:22.296Z,-61
2016-12-29T10:55:22.251Z,-60
2016-12-29T10:56:22.234Z,-59
2016-12-29T10:57:22.297Z,-60
2016-12-29T10:58:22.538Z,-60
2016-12-29T10:59:22.361Z,-59
2016-12-29T11:00:22.346Z,-60
2016-12-29T11:01:22.373Z,-62
2016-12-29T11:02:22.304Z,-59
2016-12-29T11:03:22.248Z,-61
2016-12-29T11:04:22.244Z,-58
2016-12-29T11:05:22.274Z,-58
2016-12-29T11:06:22.388Z,-55
2016-12-29T11:07:22.277Z,-59
2016-12-29T11:08:22.446Z,-61
2016-12-29T11:09:22.264Z,-61
2016-12-29T11:10:22.211Z,-59
2016-12-29T11:11:22.229Z,-60
2016-12-29T11:12:22.298Z,-59
2016-12-29T11:13:22.304Z,-59
2016-12-29T11:14:22.338Z,-60
2016-12-29T11:15:22.216Z,-61
2016-12-29T11:16:22.358Z,-59
2016-12-29T11:17:22.282Z,-60
2016-12-29T11:18:22.246Z,-60
2016-12-29T11:19:22.251Z,-62
2016-12-29T11:20:22.318Z,-61
2016-12-29T11:21:22.268Z,-60
2016-12-29T11:22:22.274Z,-62
2016-12-29T11:23:22.378Z,-59
2016-12-29T11:24:22.781Z,-60
2016-12-29T11:25:22.274Z,-60
2016-12-29T11:26:22.284Z,-60
2016-12-29T11:27:23.522Z,-60
2016-12-29T11:28:22.528Z,-59
2016-12-29T11:29:22.592Z,-62
2016-12-29T11:30:22.743Z,-62
2016-12-29T11:31:22.560Z,-62
2016-12-29T11:32:22.922Z,-62
2016-12-29T11:33:22.266Z,-63
2016-12-29T11:34:22.319Z,-65
2016-12-29T11:35:22.285Z,-65
2016-12-29T11:36:22.278Z,-66
2016-12-29T11:37:22.779Z,-65
2016-12-29T11:38:22.332Z,-63
2016-12-29T11:39:22.289Z,-64
2016-12-29T11:40:22.292Z,-65
2016-12-29T11:41:22.321Z,-60
2016-12-29T11:42:22.286Z,-59
2016-12-29T11:43:22.334Z,-59
2016-12-29T11:44:22.327Z,-60
2016-12-29T11:45:22.293Z,-63
2016-12-29T11:46:22.333Z,-64
2016-12-29T11:47:22.400Z,-67
2016-12-29T11:48:22.318Z,-66
2016-12-29T11:49:22.337Z,-64
2016-12-29T11:50:22.303Z,-62
2016-12-29T11:51:22.332Z,-64
2016-12-29T11:52:23.449Z,-60
2016-12-29T11:53:22.288Z,-62
2016-12-29T11:54:22.285Z,-58
2016-12-29T11:55:22.260Z,-62
2016-12-29T11:56:22.313Z,-62
2016-12-29T11:57:22.319Z,-59
2016-12-29T11:58:22.311Z,-61
2016-12-29T11:59:22.317Z,-60
2016-12-29T12:00:22.311Z,-59
2016-12-29T12:01:22.330Z,-59
2016-12-29T12:02:22.351Z,-62
2016-12-29T12:03:22.313Z,-59
2016-12-29T12:04:22.324Z,-62
2016-12-29T12:05:22.348Z,-59
2016-12-29T12:06:22.363Z,-62
2016-12-29T12:07:22.332Z,-60
2016-12-29T12:08:22.283Z,-62
2016-12-29T12:09:22.283Z,-62
2016-12-29T12:10:22.269Z,-64
2016-12-29T12:11:22.288Z,-63
2016-12-29T12:12:22.260Z,-62
2016-12-29T12:13:22.326Z,-61
2016-12-29T12:14:22.259Z,-61
2016-12-29T12:15:22.287Z,-62
2016-12-29T12:16:22.285Z,-60
2016-12-29T12:17:22.307Z,-60
2016-12-29T12:18:22.320Z,-63
2016-12-29T12:19:22.754Z,-62
2016-12-29T12:20:22.299Z,-61
2016-12-29T12:21:22.292Z,-61
2016-12-29T12:22:22.298Z,-61
2016-12-29T12:23:22.305Z,-60
2016-12-29T12:24:22.313Z,-59
2016-12-29T12:25:22.340Z,-59
2016-12-29T12:26:22.282Z,-60
2016-12-29T12:27:22.285Z,-59
2016-12-29T12:28:22.305Z,-59
2016-12-29T12:29:22.303Z,-62
2016-12-29T12:30:22.271Z,-59
2016-12-29T12:31:22.464Z,-60
2016-12-29T12:32:22.372Z,-60
2016-12-29T12:33:22.420Z,-61
2016-12-29T12:34:22.345Z,-60
2016-12-29T12:35:22.484Z,-60
2016-12-29T12:36:22.434Z,-59
2016-12-29T12:37:22.320Z,-59
2016-12-29T12:38:22.299Z,-60
2016-12-29T12:39:22.333Z,-57
2016-12-29T12:40:22.333Z,-60
2016-12-29T12:41:22.591Z,-60
2016-12-29T12:42:22.370Z,-61
2016-12-29T12:43:22.380Z,-63
2016-12-29T12:44:22.301Z,-60
2016-12-29T12:45:22.541Z,-62
2016-12-29T12:46:22.411Z,-62
2016-12-29T12:47:22.349Z,-61
2016-12-29T12:48:22.320Z,-60
2016-12-29T12:49:22.330Z,-60
2016-12-29T12:50:22.432Z,-60
2016-12-29T12:51:22.686Z,-62
2016-12-29T12:52:22.959Z,-59
2016-12-29T12:53:22.609Z,-61
2016-12-29T12:54:22.382Z,-62
2016-12-29T12:55:22.438Z,-60
2016-12-29T12:56:22.324Z,-60
2016-12-29T12:57:22.896Z,-61
2016-12-29T12:58:22.349Z,-59
2016-12-29T12:59:24.344Z,-60
2016-12-29T13:00:22.564Z,-58
2016-12-29T13:01:22.292Z,-59
2016-12-29T13:02:22.382Z,-58
2016-12-29T13:03:22.350Z,-59
2016-12-29T13:04:22.328Z,-61
2016-12-29T13:05:22.688Z,-60
2016-12-29T13:06:22.340Z,-59
2016-12-29T13:07:22.313Z,-59
2016-12-29T13:08:22.381Z,-59
2016-12-29T13:09:22.496Z,-59
2016-12-29T13:10:22.341Z,-58
2016-12-29T13:11:22.560Z,-58
2016-12-29T13:12:22.307Z,-58
2016-12-29T13:13:22.385Z,-60
2016-12-29T13:14:22.354Z,-59
2016-12-29T13:15:22.334Z,-57
2016-12-29T13:16:22.306Z,-60
2016-12-29T13:17:22.325Z,-57
2016-12-29T13:18:22.348Z,-58
2016-12-29T13:19:22.354Z,-58
2016-12-29T13:20:22.358Z,-58
2016-12-29T13:21:22.343Z,-57
2016-12-29T13:22:22.503Z,-65
2016-12-29T13:23:22.388Z,-58
2016-12-29T13:24:22.346Z,-58
2016-12-29T13:25:22.323Z,-58
2016-12-29T13:26:22.331Z,-57
2016-12-29T13:27:22.333Z,-61
2016-12-29T13:28:22.358Z,-58
2016-12-29T13:29:22.308Z,-57
2016-12-29T13:30:22.339Z,-61
2016-12-29T13:31:22.335Z,-58
2016-12-29T13:32:22.475Z,-55
2016-12-29T13:33:22.364Z,-58
2016-12-29T13:34:22.379Z,-58
2016-12-29T13:35:22.381Z,-58
2016-12-29T13:36:22.326Z,-58
2016-12-29T13:37:22.422Z,-59
2016-12-29T13:38:22.368Z,-59
2016-12-29T13:39:22.329Z,-60
2016-12-29T13:40:22.339Z,-58
2016-12-29T13:41:22.345Z,-58
2016-12-29T13:42:22.323Z,-59
2016-12-29T13:43:22.436Z,-58
2016-12-29T13:44:22.341Z,-59
2016-12-29T13:45:22.349Z,-58
2016-12-29T13:46:22.325Z,-57